• Join FlightAware (Why Join?)
  • Login
  • US Flag 
06:22AM EST


 

Airport Tracker/Info


-or-


 

Live Flight TrackerFlight Track Log ✈ AAY817 ✈ 16-May-2014 ✈ KHTS - KPIE

Flight Track Log - Related Links

Times and Time Zones

All times are in EDT time to prevent confusion due to time zone crossing. See the AAY817 flight status page for this flight to view local times or setup timezone preferences in your user account.

Time Position Orientation Groundspeed Altitude Reporting Facility
EDT Latitude Longitude Course Direction KTS MPH feet Rate Location/Type
02:57PM 38.3431 -82.6083 180° South 183 211 3,200  Level Indianapolis Center
02:58PM 38.2769 -82.6356 198° South 242 278 5,900 2,760 Climbing Indianapolis Center
02:59PM 38.2117 -82.6711 203° Southwest 250 288 9,000 2,820 Climbing Indianapolis Center
03:00PM 38.1303 -82.7100 201° Southwest 264 304 11,800 2,220 Climbing Indianapolis Center
03:01PM 38.0397 -82.6950 173° South 315 362 13,700 2,220 Climbing Indianapolis Center
03:03PM 37.7470 -82.5500 180° South  Level FlightAware Approximate
03:03PM 37.9456 -82.7114 188° South 336 387 16,400  Level Indianapolis Center
03:04PM 37.8492 -82.7206 184° South 339 390 18,700 2,340 Climbing Indianapolis Center
03:05PM 37.7511 -82.7161 178° South 346 398 21,300 2,220 Climbing Indianapolis Center
03:06PM 37.6550 -82.7131 179° South 346 398 23,400 1,920 Climbing Indianapolis Center
03:07PM 37.5422 -82.7108 179° South 346 398 25,400 1,740 Climbing Indianapolis Center
03:08PM 37.4428 -82.7086 179° South 351 404 27,000 1,260 Climbing Indianapolis Center
03:09PM 37.3417 -82.7072 179° South 357 411 28,100 900 Climbing Indianapolis Center
03:10PM 37.2411 -82.7344 192° South 363 418 28,900 780 Climbing Indianapolis Center
03:11PM 37.1375 -82.7617 192° South 373 429 29,800 840 Climbing Indianapolis Center
03:12PM 37.0131 -82.8014 194° South 388 447 30,700 900 Climbing Indianapolis Center
03:13PM 36.9039 -82.8372 195° South 394 453 31,700 840 Climbing Indianapolis Center
03:14PM 36.7922 -82.8739 195° South 394 453 32,500 960 Climbing Indianapolis Center
03:15PM 36.6867 -82.9094 195° South 393 452 33,800 1,320 Climbing Indianapolis Center
03:16PM 36.5831 -82.9403 193° South 386 444 35,300 1,020 Climbing Indianapolis Center
03:17PM 36.4808 -82.9381 179° South 374 430 36,000 300 Climbing Indianapolis Center
03:18PM 36.3731 -82.9306 177° South 380 437 36,000  Level Indianapolis Center
03:19PM 36.2972 -82.9258 177° South 386 444 36,000  Level Atlanta Center
03:20PM 36.1928 -82.9197 177° South 386 444 36,000  Level Atlanta Center
03:21PM 36.0864 -82.9108 176° South 386 444 36,000  Level Atlanta Center
03:22PM 35.9800 -82.9044 177° South 386 444 36,000  Level Atlanta Center
03:23PM 35.8714 -82.8983 177° South 386 444 36,000  Level Atlanta Center
03:24PM 35.7631 -82.8897 176° South 386 444 36,000  Level Atlanta Center
03:25PM 35.6564 -82.8836 177° South 391 450 36,000  Level Atlanta Center
03:26PM 35.5481 -82.8772 177° South 391 450 36,000  Level Atlanta Center
03:28PM 34.9207 -82.8318 177° South 390 449 36,000  Level FlightAware ADS-B (KDZJ)
03:29PM 34.8596 -82.8276 177° South 388 447 36,100 60 Climbing FlightAware ADS-B (KDZJ)
03:29PM 34.8009 -82.8236 177° South 386 444 36,100 -120 Level FlightAware ADS-B (KDZJ)
03:30PM 34.7459 -82.8199 177° South 391 450 36,000 -60 Descending FlightAware ADS-B (KDZJ)
03:31PM 34.5960 -82.8103 177° South 387 445 36,000  Level FlightAware ADS-B (KDZJ)
03:32PM 34.5106 -82.8045 177° South 387 445 36,000 60 Level FlightAware ADS-B (KDZJ)
03:33PM 34.7942 -82.8247 177° South 396 456 36,100  Climbing Atlanta Center
03:34PM 34.6856 -82.8186 177° South 401 461 36,000 -60 Descending Atlanta Center
03:35PM 34.5769 -82.8103 176° South 396 456 36,000  Level Atlanta Center
03:36PM 34.4706 -82.8067 178° South 396 456 36,000  Level Atlanta Center
03:37PM 34.3639 -82.7981 176° South 391 450 36,000  Level Atlanta Center
03:38PM 34.2533 -82.7897 176° South 391 450 36,000  Level Atlanta Center
03:39PM 34.1447 -82.7839 177° South 391 450 36,000  Level Atlanta Center
03:40PM 34.0361 -82.7778 177° South 391 450 36,000  Level Atlanta Center
03:41PM 33.9381 -82.7694 176° South 396 456 36,000  Level Atlanta Center
03:42PM 33.8272 -82.7636 177° South 396 456 36,000  Level Atlanta Center
03:43PM 33.7167 -82.7603 179° South 402 463 36,000  Level Atlanta Center
03:44PM 33.6100 -82.7492 175° South 402 463 36,000 -60 Level Atlanta Center
03:45PM 33.5036 -82.7408 176° South 397 457 35,900  Descending Atlanta Center
03:46PM 33.3969 -82.7350 177° South 392 451 36,000  Climbing Atlanta Center
03:47PM 33.2883 -82.7267 176° South 392 451 36,000  Level Atlanta Center
03:48PM 33.1694 -82.7211 178° South 392 451 36,000  Level Atlanta Center
03:49PM 33.0650 -82.7128 176° South 386 444 36,000  Level Atlanta Center
03:50PM 32.9583 -82.7044 176° South 386 444 36,000  Level Atlanta Center
03:51PM 32.8561 -82.6986 177° South 386 444 36,000  Level Atlanta Center
03:52PM 32.7514 -82.6903 176° South 386 444 36,000  Level Atlanta Center
03:53PM 32.6450 -82.6869 178° South 386 444 36,000  Level Atlanta Center
03:54PM 32.5428 -82.6786 176° South 386 444 36,000  Level Atlanta Center
03:55PM 32.3792 -82.6664 176° South 391 450 36,000  Level Jacksonville Center
03:56PM 32.2728 -82.6592 177° South 384 442 36,000  Level Jacksonville Center
03:57PM 32.1683 -82.6544 178° South 384 442 36,000  Level Jacksonville Center
03:58PM 32.0639 -82.6500 178° South 384 442 36,000  Level Jacksonville Center
03:59PM 31.9597 -82.6428 177° South 384 442 36,000  Level Jacksonville Center
04:00PM 31.8531 -82.6358 177° South 384 442 36,000  Level Jacksonville Center
04:01PM 31.7444 -82.6264 176° South 384 442 36,000  Level Jacksonville Center
04:02PM 31.6422 -82.6217 178° South 384 442 36,000  Level Jacksonville Center
04:03PM 31.5356 -82.6147 177° South 384 442 36,000  Level Jacksonville Center
04:04PM 31.4314 -82.6078 177° South 384 442 36,000  Level Jacksonville Center
04:05PM 31.3122 -82.6081 180° South 384 442 36,000  Level Jacksonville Center
04:06PM 31.2058 -82.5986 176° South 384 442 36,000  Level Jacksonville Center
04:07PM 31.1014 -82.5942 178° South 384 442 36,000 -60 Level Jacksonville Center
04:13PM 30.5217 -82.5198 171° South 394 453 35,900  Descending FlightAware ADS-B (KMCO)
04:13PM 30.4339 -82.5045 171° South 396 456 36,000  Climbing FlightAware ADS-B (KMCO)
04:16PM 30.2022 -82.4643 172° South 399 459 35,900 -60 Descending FlightAware ADS-B (KMCO)
04:16PM 30.1147 -82.4492 171° South 400 460 35,900 -120 Level FlightAware ADS-B (KMCO)
04:17PM 30.0018 -82.4295 171° South 403 464 35,700 -1,380 Descending FlightAware ADS-B (KMCO)
04:19PM 29.8428 -82.4023 172° South 398 458 32,500 -2,220 Descending FlightAware ADS-B (KMCO)
04:20PM 29.7661 -82.3890 171° South 393 452 30,900 -2,400 Descending FlightAware ADS-B (KMCO)
04:21PM 29.6573 -82.3702 172° South 385 443 28,500 -2,100 Descending FlightAware ADS-B (KMCO)
04:22PM 29.5071 -82.3474 175° South 357 411 25,700 -1,860 Descending FlightAware ADS-B (KMCO)
04:23PM 29.4383 -82.3402 175° South 355 409 24,500 -1,620 Descending FlightAware ADS-B (KMCO)
04:23PM 29.3897 -82.3344 174° South 348 400 23,500 -1,680 Descending FlightAware ADS-B (KMCO)
04:24PM 29.2622 -82.3196 174° South 400 460 21,500 -1,500 Descending FlightAware ADS-B (KMCO)
04:25PM 29.1834 -82.3098 174° South 400 460 21,000 -780 Descending FlightAware ADS-B (KMCO)
04:26PM 29.1248 -82.3026 174° South 393 452 20,600 -1,920 Descending FlightAware ADS-B (KMCO)
04:27PM 29.0248 -82.2907 174° South 388 447 18,200 -2,760 Descending FlightAware ADS-B (KMCO)
04:27PM 28.9459 -82.2816 174° South 390 449 16,000 -2,280 Descending FlightAware ADS-B (KMCO)
04:29PM 28.7768 -82.2613 174° South 373 429 12,900 -1,380 Descending FlightAware ADS-B (KMCO)
04:30PM 28.7179 -82.2565 180° South 371 427 12,600 -540 Descending FlightAware ADS-B (KMCO)
04:31PM 28.5561 -82.2542 182° South 367 422 11,800 -660 Descending FlightAware ADS-B (KMCO)
04:32PM 28.5135 -82.2636 203° Southwest 355 409 11,500 -840 Descending FlightAware ADS-B (KMCO)
04:32PM 28.4911 -82.2851 236° Southwest 342 394 11,200 -780 Descending FlightAware ADS-B (KMCO)
04:32PM 28.4773 -82.3323 265° West 338 389 10,900 -840 Descending FlightAware ADS-B (KMCO)
04:33PM 28.4706 -82.4297 265° West 341 392 10,100 -540 Descending Miami Center
04:34PM 28.4294 -82.5267 244° Southwest 345 397 9,900 -120 Descending Miami Center
04:35PM 28.3875 -82.6200 243° Southwest 338 389 9,900 -60 Level Miami Center
04:36PM 28.3147 -82.6722 212° Southwest 309 356 9,800 -960 Descending Miami Center
04:37PM 28.2347 -82.7267 211° Southwest 283 326 8,000 -1,560 Descending Miami Center
04:39PM 28.1500 -82.7833 211° Southwest 285 328 6,400 -1,200 Descending Tampa TRACON
04:40PM 28.0833 -82.7833 180° South 285 328 5,500 -1,020 Descending Tampa TRACON
04:41PM 28.0000 -82.7667 170° South 273 314 4,500 -1,080 Descending Tampa TRACON
04:42PM 27.9333 -82.7667 180° South 257 296 3,400 -840 Descending Tampa TRACON
04:42PM 27.8667 -82.7667 180° South 240 276 3,000 -240 Descending Tampa TRACON
04:44PM 27.8000 -82.7500 168° South 208 239 3,000 -240 Level Tampa TRACON
04:44PM 27.7667 -82.7333 156° South 187 215 2,600 -420 Descending Tampa TRACON
04:46PM 27.7667 -82.6833 90° East 159 183 2,200 -480 Descending Tampa TRACON
04:47PM 27.8167 -82.6667 16° North 153 176 1,600 -660 Descending Tampa TRACON
04:48PM 27.8500 -82.6833 336° Northwest 130 150 900 -660 Descending Tampa TRACON
04:49PM 27.8833 -82.6833 360° North 124 143 300 -600 Descending Tampa TRACON